createdAt,value
2018-07-11T00:01:19.771Z,2.47
2018-07-11T00:03:50.940Z,2.00
2018-07-11T00:06:20.942Z,2.20
2018-07-11T00:08:49.636Z,1.97
2018-07-11T00:11:18.257Z,2.50
2018-07-11T00:13:47.645Z,2.60
2018-07-11T00:16:16.916Z,2.57
2018-07-11T00:18:45.551Z,2.60
2018-07-11T00:21:14.951Z,2.37
2018-07-11T00:23:43.655Z,2.57
2018-07-11T00:26:13.081Z,2.40
2018-07-11T00:28:41.968Z,2.77
2018-07-11T00:31:10.696Z,3.07
2018-07-11T00:33:39.898Z,3.13
2018-07-11T00:36:08.615Z,3.00
2018-07-11T00:38:37.399Z,3.47
2018-07-11T00:41:07.617Z,3.40
2018-07-11T00:43:36.360Z,3.40
2018-07-11T00:46:05.983Z,2.97
2018-07-11T00:48:35.320Z,3.67
2018-07-11T00:51:04.625Z,2.97
2018-07-11T00:53:35.661Z,3.17
2018-07-11T00:56:04.350Z,2.60
2018-07-11T00:58:38.603Z,2.80
2018-07-11T01:01:15.556Z,3.53
2018-07-11T01:04:00.985Z,3.70
2018-07-11T01:06:30.029Z,3.50
2018-07-11T01:08:59.873Z,3.73
2018-07-11T01:11:37.128Z,3.83
2018-07-11T01:14:06.252Z,3.77
2018-07-11T01:16:34.916Z,3.70
2018-07-11T01:19:10.963Z,3.87
2018-07-11T01:21:39.964Z,3.67
2018-07-11T01:24:09.258Z,2.90
2018-07-11T01:26:39.089Z,3.70
2018-07-11T01:29:08.326Z,3.40
2018-07-11T01:31:36.921Z,4.17
2018-07-11T01:34:05.554Z,3.60
2018-07-11T01:36:34.852Z,3.90
2018-07-11T01:39:04.463Z,3.07
2018-07-11T01:41:33.143Z,3.73
2018-07-11T01:44:01.818Z,3.43
2018-07-11T01:46:39.005Z,4.10
2018-07-11T01:49:07.660Z,3.57
2018-07-11T01:51:47.392Z,4.10
2018-07-11T01:54:16.077Z,3.80
2018-07-11T01:56:45.425Z,3.60
2018-07-11T01:59:14.864Z,3.93
2018-07-11T02:01:44.086Z,3.53
2018-07-11T02:04:13.521Z,3.30
2018-07-11T02:06:42.515Z,3.97
2018-07-11T02:09:11.753Z,3.92
2018-07-11T02:11:40.414Z,4.17
2018-07-11T02:14:09.904Z,4.27
2018-07-11T02:16:38.615Z,3.77
2018-07-11T02:19:07.355Z,4.13
2018-07-11T02:21:36.069Z,3.63
2018-07-11T02:24:05.306Z,4.40
2018-07-11T02:26:34.634Z,4.53
2018-07-11T02:29:03.313Z,4.20
2018-07-11T02:31:32.385Z,4.00
2018-07-11T02:34:01.101Z,4.03
2018-07-11T02:36:29.781Z,4.90
2018-07-11T02:38:58.413Z,4.37
2018-07-11T02:41:27.053Z,3.63
2018-07-11T02:43:56.604Z,4.33
2018-07-11T02:46:30.519Z,4.10
2018-07-11T02:49:00.238Z,4.23
2018-07-11T02:51:28.929Z,4.20
2018-07-11T02:53:57.617Z,3.60
2018-07-11T02:56:26.277Z,3.90
2018-07-11T02:58:54.515Z,4.27
2018-07-11T03:01:23.148Z,3.87
2018-07-11T03:03:52.106Z,4.67
2018-07-11T03:06:21.349Z,4.60
2018-07-11T03:08:51.390Z,4.27
2018-07-11T03:11:20.924Z,5.37
2018-07-11T03:13:49.853Z,4.30
2018-07-11T03:16:21.907Z,5.03
2018-07-11T03:18:51.175Z,4.50
2018-07-11T03:21:19.902Z,4.40
2018-07-11T03:23:48.541Z,4.97
2018-07-11T03:26:19.081Z,4.77
2018-07-11T03:28:47.765Z,5.90
2018-07-11T03:31:16.391Z,5.37
2018-07-11T03:33:45.025Z,5.13
2018-07-11T03:36:13.695Z,6.00
2018-07-11T03:38:43.102Z,5.07
2018-07-11T03:41:11.964Z,4.93
2018-07-11T03:43:40.741Z,4.67
2018-07-11T03:46:09.403Z,5.97
2018-07-11T03:48:38.052Z,4.93
2018-07-11T03:51:06.860Z,5.43
2018-07-11T03:53:35.341Z,5.17
2018-07-11T03:56:03.970Z,5.33
2018-07-11T03:58:32.589Z,4.93
2018-07-11T04:01:01.256Z,4.97
2018-07-11T04:03:29.860Z,5.13
2018-07-11T04:05:58.507Z,5.07
2018-07-11T04:08:27.783Z,5.40
2018-07-11T04:10:57.329Z,4.93
2018-07-11T04:13:26.578Z,5.47
2018-07-11T04:15:55.212Z,5.00
2018-07-11T04:18:30.791Z,5.27
2018-07-11T04:21:01.119Z,5.83
2018-07-11T04:23:30.105Z,5.43
2018-07-11T04:26:00.013Z,5.60
2018-07-11T04:28:29.750Z,5.57
2018-07-11T04:30:59.097Z,4.93
2018-07-11T04:33:28.326Z,6.07
2018-07-11T04:35:56.561Z,5.43
2018-07-11T04:38:25.228Z,5.67
2018-07-11T04:40:54.035Z,5.27
2018-07-11T04:43:26.614Z,5.67
2018-07-11T04:45:55.664Z,5.80
2018-07-11T04:48:24.292Z,6.13
2018-07-11T04:50:52.981Z,6.00
2018-07-11T04:53:25.590Z,5.40
2018-07-11T04:55:57.509Z,7.83
2018-07-11T04:58:26.826Z,7.13
2018-07-11T05:00:55.917Z,8.20
2018-07-11T05:03:25.129Z,7.70
2018-07-11T05:05:53.952Z,6.73
2018-07-11T05:08:23.524Z,7.73
2018-07-11T05:10:52.483Z,7.13
2018-07-11T05:13:21.516Z,6.77
2018-07-11T05:15:50.108Z,7.20
2018-07-11T05:18:19.597Z,6.23
2018-07-11T05:20:48.195Z,7.20
2018-07-11T05:23:17.097Z,6.50
2018-07-11T05:25:46.265Z,6.33
2018-07-11T05:28:14.893Z,6.27
2018-07-11T05:30:43.536Z,5.87
2018-07-11T05:33:12.207Z,6.00
2018-07-11T05:35:40.936Z,6.43
2018-07-11T05:38:10.119Z,6.13
2018-07-11T05:40:38.705Z,6.47
2018-07-11T05:43:07.704Z,5.83
2018-07-11T05:45:36.468Z,6.27
2018-07-11T05:48:05.496Z,6.30
2018-07-11T05:50:34.383Z,6.97
2018-07-11T05:53:03.397Z,6.83
2018-07-11T05:55:31.989Z,6.37
2018-07-11T05:58:00.602Z,5.50
2018-07-11T06:00:29.963Z,6.43
2018-07-11T06:02:58.949Z,6.23
2018-07-11T06:05:27.610Z,6.23
2018-07-11T06:07:57.154Z,6.47
2018-07-11T06:10:25.909Z,6.23
2018-07-11T06:12:55.480Z,5.73
2018-07-11T06:15:24.393Z,5.87
2018-07-11T06:17:53.033Z,5.73
2018-07-11T06:20:22.012Z,6.30
2018-07-11T06:22:50.781Z,5.90
2018-07-11T06:25:20.234Z,5.73
2018-07-11T06:27:48.836Z,5.87
2018-07-11T06:30:17.776Z,5.03
2018-07-11T06:32:46.381Z,5.47
2018-07-11T06:35:15.045Z,6.00
2018-07-11T06:37:43.649Z,5.53
2018-07-11T06:40:12.417Z,5.30
2018-07-11T06:42:41.064Z,4.90
2018-07-11T06:45:10.445Z,5.07
2018-07-11T06:47:39.312Z,5.13
2018-07-11T06:50:08.644Z,4.57
2018-07-11T06:52:38.721Z,4.70
2018-07-11T06:55:07.364Z,4.47
2018-07-11T06:57:36.035Z,4.70
2018-07-11T07:00:04.827Z,4.57
2018-07-11T07:02:33.445Z,4.43
2018-07-11T07:05:02.077Z,4.40
2018-07-11T07:07:31.365Z,4.50
2018-07-11T07:10:00.029Z,4.70
2018-07-11T07:12:29.378Z,4.97
2018-07-11T07:14:58.020Z,4.67
2018-07-11T07:17:26.315Z,4.87
2018-07-11T07:19:55.245Z,4.63
2018-07-11T07:22:24.082Z,5.30
2018-07-11T07:24:52.697Z,4.80
2018-07-11T07:27:21.380Z,4.90
2018-07-11T07:29:50.019Z,5.73
2018-07-11T07:32:18.615Z,5.93
2018-07-11T07:34:47.275Z,5.00
2018-07-11T07:37:15.876Z,4.27
2018-07-11T07:39:44.466Z,4.77
2018-07-11T07:42:13.113Z,4.40
2018-07-11T07:44:42.172Z,3.77
2018-07-11T07:47:16.812Z,4.20
2018-07-11T07:49:45.521Z,4.30
2018-07-11T07:52:14.251Z,4.00
2018-07-11T07:54:43.206Z,3.87
2018-07-11T07:57:13.155Z,3.70
2018-07-11T07:59:41.858Z,3.20
2018-07-11T08:02:12.275Z,3.67
2018-07-11T08:04:41.077Z,3.67
2018-07-11T08:07:09.858Z,3.40
2018-07-11T08:09:38.514Z,3.00
2018-07-11T08:12:07.171Z,3.10
2018-07-11T08:14:35.804Z,3.57
2018-07-11T08:17:04.452Z,3.90
2018-07-11T08:19:33.095Z,3.90
2018-07-11T08:22:13.064Z,3.30
2018-07-11T08:24:52.953Z,3.43
2018-07-11T08:27:36.436Z,4.30
2018-07-11T08:32:18.290Z,3.87
2018-07-11T08:37:31.587Z,5.17
2018-07-11T08:50:01.613Z,4.33
2018-07-11T08:52:59.730Z,4.37
2018-07-11T08:56:10.954Z,4.90
2018-07-11T08:59:06.565Z,3.90
2018-07-11T09:03:54.746Z,4.60
2018-07-11T09:08:50.380Z,3.73
2018-07-11T09:12:34.410Z,4.07
2018-07-11T09:15:13.456Z,2.93
2018-07-11T09:18:00.487Z,3.60
2018-07-11T09:20:34.185Z,3.33
2018-07-11T09:23:13.912Z,3.70
2018-07-11T09:25:42.516Z,3.63
2018-07-11T09:28:11.265Z,3.33
2018-07-11T09:30:39.930Z,3.73
2018-07-11T09:33:08.591Z,3.63
2018-07-11T09:35:37.279Z,3.07
2018-07-11T09:38:06.451Z,3.47
2018-07-11T09:40:35.120Z,3.30
2018-07-11T09:43:04.569Z,2.73
2018-07-11T09:45:33.268Z,2.60
2018-07-11T09:48:02.005Z,3.63
2018-07-11T09:50:31.182Z,2.60
2018-07-11T09:52:59.850Z,3.43
2018-07-11T09:55:29.192Z,3.63
2018-07-11T09:57:58.428Z,2.53
2018-07-11T10:00:33.055Z,3.07
2018-07-11T10:03:01.729Z,3.70
2018-07-11T10:05:30.557Z,3.00
2018-07-11T10:07:59.862Z,2.70
2018-07-11T10:10:28.552Z,2.67
2018-07-11T10:12:57.620Z,3.00
2018-07-11T10:15:26.253Z,3.30
2018-07-11T10:17:54.892Z,2.57
2018-07-11T10:20:24.145Z,2.40
2018-07-11T10:22:52.750Z,2.37
2018-07-11T10:25:21.013Z,1.90
2018-07-11T10:27:59.630Z,2.33
2018-07-11T10:30:28.868Z,2.60
2018-07-11T10:32:57.690Z,3.30
2018-07-11T10:35:26.319Z,2.80
2018-07-11T10:37:55.968Z,2.60
2018-07-11T10:40:26.134Z,2.83
2018-07-11T10:42:54.928Z,2.93
2018-07-11T10:45:23.591Z,3.17
2018-07-11T10:47:53.009Z,4.67
2018-07-11T10:50:21.620Z,3.47
2018-07-11T10:52:50.719Z,3.00
2018-07-11T10:55:19.380Z,3.30
2018-07-11T10:57:48.572Z,2.63
2018-07-11T11:00:35.963Z,3.10
2018-07-11T11:02:51.241Z,3.72
2018-07-11T11:05:21.015Z,3.67
2018-07-11T11:07:51.034Z,4.07
2018-07-11T11:10:19.729Z,4.53
2018-07-11T11:12:48.606Z,4.17
2018-07-11T11:15:17.257Z,3.47
2018-07-11T11:17:45.972Z,3.90
2018-07-11T11:20:16.218Z,4.20
2018-07-11T11:22:45.727Z,4.23
2018-07-11T11:25:14.406Z,4.17
2018-07-11T11:27:43.154Z,4.77
2018-07-11T11:30:11.874Z,4.60
2018-07-11T11:32:41.101Z,4.73
2018-07-11T11:35:09.748Z,5.00
2018-07-11T11:37:38.956Z,3.33
2018-07-11T11:40:07.236Z,4.00
2018-07-11T11:42:36.032Z,4.63
2018-07-11T11:45:04.832Z,5.50
2018-07-11T11:47:33.505Z,5.40
2018-07-11T11:50:01.866Z,4.13
2018-07-11T11:52:30.554Z,4.73
2018-07-11T11:54:59.253Z,4.43
2018-07-11T11:57:27.865Z,4.00
2018-07-11T11:59:56.565Z,3.83
2018-07-11T12:02:25.221Z,4.47
2018-07-11T12:04:53.816Z,5.70
2018-07-11T12:07:23.130Z,4.50
2018-07-11T12:09:51.812Z,5.00
2018-07-11T12:12:20.492Z,5.40
2018-07-11T12:14:49.163Z,4.63
2018-07-11T12:17:18.580Z,4.53
2018-07-11T12:19:47.970Z,4.10
2018-07-11T12:22:21.753Z,4.47
2018-07-11T12:24:50.697Z,4.67
2018-07-11T12:27:19.257Z,5.00
2018-07-11T12:29:48.554Z,4.77
2018-07-11T12:32:17.220Z,5.00
2018-07-11T12:34:45.909Z,4.90
2018-07-11T12:37:16.278Z,4.73
2018-07-11T12:39:45.336Z,5.40
2018-07-11T12:42:14.448Z,5.23
2018-07-11T12:44:43.841Z,5.03
2018-07-11T12:47:17.882Z,5.93
2018-07-11T12:49:46.620Z,6.03
2018-07-11T12:52:15.946Z,5.90
2018-07-11T12:54:44.876Z,5.60
2018-07-11T12:57:13.820Z,5.97
2018-07-11T12:59:42.992Z,5.17
2018-07-11T13:02:13.008Z,5.50
2018-07-11T13:04:41.959Z,5.47
2018-07-11T13:07:10.688Z,5.03
2018-07-11T13:09:39.426Z,5.57
2018-07-11T13:12:08.131Z,6.47
2018-07-11T13:14:36.729Z,6.33
2018-07-11T13:17:05.354Z,7.33
2018-07-11T13:19:34.004Z,6.93
2018-07-11T13:22:02.726Z,6.07
2018-07-11T13:24:31.721Z,6.67
2018-07-11T13:27:01.202Z,7.73
2018-07-11T13:29:29.983Z,7.87
2018-07-11T13:31:59.623Z,7.63
2018-07-11T13:34:28.244Z,7.43
2018-07-11T13:36:57.558Z,7.70
2018-07-11T13:39:26.203Z,7.43
2018-07-11T13:41:54.900Z,7.77
2018-07-11T13:44:23.650Z,8.47
2018-07-11T13:46:52.359Z,8.80
2018-07-11T13:49:21.028Z,7.70
2018-07-11T13:51:49.805Z,8.90
2018-07-11T13:54:18.576Z,8.53
2018-07-11T13:56:48.454Z,9.03
2018-07-11T13:59:17.567Z,10.27
2018-07-11T14:01:46.375Z,10.20
2018-07-11T14:04:15.884Z,9.70
2018-07-11T14:06:45.316Z,9.90
2018-07-11T14:09:14.917Z,10.40
2018-07-11T14:11:43.883Z,11.17
2018-07-11T14:14:13.483Z,11.60
2018-07-11T14:16:42.173Z,11.53
2018-07-11T14:19:11.429Z,10.53
2018-07-11T14:21:40.730Z,12.00
2018-07-11T14:24:09.781Z,11.30
2018-07-11T14:26:38.606Z,11.50
2018-07-11T14:29:07.338Z,10.17
2018-07-11T14:31:37.173Z,9.97
2018-07-11T14:34:08.066Z,10.70
2018-07-11T14:36:37.033Z,10.10
2018-07-11T14:39:07.548Z,10.00
2018-07-11T14:41:37.070Z,8.17
2018-07-11T14:44:07.163Z,8.53
2018-07-11T14:46:35.941Z,9.07
2018-07-11T14:49:04.794Z,8.03
2018-07-11T14:51:33.865Z,8.50
2018-07-11T14:54:02.838Z,8.73
2018-07-11T14:56:31.557Z,9.27
2018-07-11T14:59:00.218Z,10.17
2018-07-11T15:01:28.892Z,9.47
2018-07-11T15:03:57.551Z,8.40
2018-07-11T15:06:27.241Z,8.77
2018-07-11T15:08:56.942Z,9.37
2018-07-11T15:11:26.354Z,8.53
2018-07-11T15:13:55.236Z,10.50
2018-07-11T15:16:23.908Z,10.27
2018-07-11T15:18:52.772Z,12.03
2018-07-11T15:21:22.111Z,12.70
2018-07-11T15:23:51.245Z,11.70
2018-07-11T15:26:20.081Z,11.77
2018-07-11T15:28:48.720Z,11.30
2018-07-11T15:31:18.158Z,10.97
2018-07-11T15:33:47.533Z,9.67
2018-07-11T15:36:16.257Z,11.37
2018-07-11T15:38:45.182Z,11.23
2018-07-11T15:41:13.905Z,9.90
2018-07-11T15:43:42.693Z,10.13
2018-07-11T15:46:11.429Z,8.53
2018-07-11T15:48:40.562Z,10.43
2018-07-11T15:51:09.345Z,9.17
2018-07-11T15:53:38.080Z,7.93
2018-07-11T15:56:07.496Z,9.40
2018-07-11T15:58:37.813Z,9.10
2018-07-11T16:01:09.706Z,9.70
2018-07-11T16:03:42.622Z,8.30
2018-07-11T16:06:11.473Z,8.47
2018-07-11T16:08:45.778Z,8.47
2018-07-11T16:11:14.413Z,8.63
2018-07-11T16:13:44.342Z,8.40
2018-07-11T16:16:13.901Z,7.73
2018-07-11T16:18:43.182Z,8.20
2018-07-11T16:21:11.933Z,10.10
2018-07-11T16:23:40.713Z,8.13
2018-07-11T16:26:09.453Z,8.53
2018-07-11T16:28:38.154Z,8.40
2018-07-11T16:31:07.151Z,7.90
2018-07-11T16:33:36.761Z,7.73
2018-07-11T16:36:05.051Z,8.10
2018-07-11T16:38:34.799Z,7.30
2018-07-11T16:41:03.743Z,7.57
2018-07-11T16:43:33.156Z,7.87
2018-07-11T16:46:02.604Z,6.63
2018-07-11T16:48:31.916Z,7.00
2018-07-11T16:51:00.826Z,6.63
2018-07-11T16:53:29.658Z,5.93
2018-07-11T16:55:58.399Z,6.73
2018-07-11T16:58:33.509Z,7.83
2018-07-11T17:01:02.264Z,6.50
2018-07-11T17:03:31.011Z,6.97
2018-07-11T17:06:05.092Z,6.43
2018-07-11T17:08:37.203Z,6.47
2018-07-11T17:11:21.049Z,7.33
2018-07-11T17:13:54.646Z,6.10
2018-07-11T17:16:30.721Z,6.83
2018-07-11T17:19:04.949Z,7.33
2018-07-11T17:21:52.377Z,6.43
2018-07-11T17:24:22.224Z,7.50
2018-07-11T17:26:54.661Z,7.03
2018-07-11T17:29:27.621Z,6.30
2018-07-11T17:32:05.243Z,6.70
2018-07-11T17:34:35.229Z,6.53
2018-07-11T17:37:06.325Z,6.60
2018-07-11T17:39:57.513Z,6.50
2018-07-11T17:42:28.649Z,6.17
2018-07-11T17:45:12.164Z,6.90
2018-07-11T17:49:21.160Z,6.50
2018-07-11T17:52:05.044Z,6.83
2018-07-11T18:04:32.477Z,8.90
2018-07-11T18:07:11.960Z,7.10
2018-07-11T18:09:47.782Z,8.43
2018-07-11T18:12:26.041Z,9.07
2018-07-11T18:15:08.093Z,8.93
2018-07-11T18:17:51.383Z,8.60
2018-07-11T18:23:32.291Z,10.83
2018-07-11T18:29:38.668Z,7.60
2018-07-11T18:32:21.920Z,8.20
2018-07-11T18:35:04.154Z,7.80
2018-07-11T18:37:49.360Z,7.73
2018-07-11T18:40:35.557Z,8.67
2018-07-11T18:43:14.293Z,8.43
2018-07-11T18:46:10.000Z,7.30
2018-07-11T18:48:50.445Z,8.73
2018-07-11T18:52:26.841Z,7.00
2018-07-11T18:57:07.106Z,6.53
2018-07-11T19:01:49.971Z,6.30
2018-07-11T19:04:36.366Z,6.40
2018-07-11T19:07:14.612Z,6.07
2018-07-11T19:09:51.741Z,6.13
2018-07-11T19:12:31.403Z,6.20
2018-07-11T19:15:11.828Z,4.80
2018-07-11T19:19:53.689Z,4.90
2018-07-11T19:23:32.125Z,4.90
2018-07-11T19:26:19.017Z,5.47
2018-07-11T19:29:10.427Z,5.90
2018-07-11T19:33:55.908Z,5.57
2018-07-11T19:36:54.702Z,5.37
2018-07-11T19:39:46.040Z,4.87
2018-07-11T19:44:29.011Z,5.13
2018-07-11T19:48:09.853Z,5.07
2018-07-11T19:51:51.517Z,6.27
2018-07-11T19:54:30.499Z,6.10
2018-07-11T19:57:01.481Z,5.43
2018-07-11T19:59:31.958Z,5.50
2018-07-11T20:02:01.497Z,5.83
2018-07-11T20:04:30.186Z,5.43
2018-07-11T20:06:58.903Z,5.30
2018-07-11T20:09:28.711Z,5.83
2018-07-11T20:11:58.698Z,5.20
2018-07-11T20:14:28.285Z,5.43
2018-07-11T20:16:56.957Z,5.20
2018-07-11T20:19:25.920Z,5.77
2018-07-11T20:21:54.654Z,5.30
2018-07-11T20:24:23.418Z,5.60
2018-07-11T20:26:53.501Z,6.47
2018-07-11T20:29:22.706Z,5.10
2018-07-11T20:31:51.986Z,6.87
2018-07-11T20:34:21.332Z,5.57
2018-07-11T20:36:49.964Z,5.50
2018-07-11T20:39:19.283Z,6.07
2018-07-11T20:41:48.629Z,6.00
2018-07-11T20:44:17.584Z,6.40
2018-07-11T20:46:46.360Z,6.40
2018-07-11T20:49:34.460Z,6.27
2018-07-11T20:52:04.677Z,6.23
2018-07-11T20:54:33.313Z,5.23
2018-07-11T20:57:01.941Z,6.03
2018-07-11T20:59:42.044Z,5.93
2018-07-11T21:02:21.853Z,5.63
2018-07-11T21:05:32.679Z,6.60
2018-07-11T21:09:08.237Z,6.13
2018-07-11T21:14:04.018Z,5.70
2018-07-11T21:22:01.801Z,5.90
2018-07-11T21:24:30.444Z,6.43
2018-07-11T21:26:59.666Z,7.27
2018-07-11T21:29:28.321Z,6.33
2018-07-11T21:31:56.948Z,6.40
2018-07-11T21:34:25.588Z,6.57
2018-07-11T21:36:54.221Z,6.70
2018-07-11T21:39:23.348Z,7.30
2018-07-11T21:41:52.646Z,7.17
2018-07-11T21:44:21.303Z,9.07
2018-07-11T21:46:50.018Z,6.27
2018-07-11T21:49:22.544Z,7.33
2018-07-11T21:51:51.652Z,7.60
2018-07-11T21:54:20.274Z,7.33
2018-07-11T21:56:48.877Z,6.93
2018-07-11T21:59:17.780Z,8.03
2018-07-11T22:01:46.407Z,6.80
2018-07-11T22:04:15.045Z,6.23
2018-07-11T22:06:43.640Z,7.60
2018-07-11T22:09:13.017Z,6.37
2018-07-11T22:11:41.656Z,8.23
2018-07-11T22:14:10.340Z,7.37
2018-07-11T22:16:38.954Z,7.67
2018-07-11T22:19:07.704Z,7.83
2018-07-11T22:21:35.110Z,8.27
2018-07-11T22:24:02.523Z,8.23
2018-07-11T22:26:30.270Z,9.20
2018-07-11T22:28:57.656Z,9.53
2018-07-11T22:31:25.043Z,8.53
2018-07-11T22:33:52.422Z,7.57
2018-07-11T22:36:19.819Z,7.47
2018-07-11T22:38:47.196Z,7.30
2018-07-11T22:41:14.610Z,8.27
2018-07-11T22:43:42.210Z,9.67
2018-07-11T22:46:09.620Z,8.67
2018-07-11T22:48:37.017Z,9.13
2018-07-11T22:51:04.421Z,9.70
2018-07-11T22:53:31.832Z,8.87
2018-07-11T22:55:59.258Z,8.90
2018-07-11T22:58:26.653Z,9.50
2018-07-11T23:00:54.057Z,8.87
2018-07-11T23:03:21.449Z,9.70
2018-07-11T23:05:48.906Z,8.80
2018-07-11T23:08:16.359Z,10.60
2018-07-11T23:10:43.743Z,10.13
2018-07-11T23:13:11.149Z,9.97
2018-07-11T23:15:38.596Z,11.40
2018-07-11T23:18:06.016Z,10.73
2018-07-11T23:20:33.504Z,10.17
2018-07-11T23:23:00.850Z,11.47
2018-07-11T23:25:28.253Z,10.57
2018-07-11T23:27:55.692Z,9.80
2018-07-11T23:30:23.106Z,9.93
2018-07-11T23:32:50.513Z,9.43
2018-07-11T23:35:17.998Z,10.87
2018-07-11T23:37:45.405Z,10.33
2018-07-11T23:40:12.808Z,9.80
2018-07-11T23:42:40.472Z,9.73
2018-07-11T23:45:07.878Z,12.30
2018-07-11T23:47:35.313Z,12.53
2018-07-11T23:50:02.706Z,11.07
2018-07-11T23:52:30.096Z,11.70
2018-07-11T23:54:57.493Z,12.77
2018-07-11T23:57:25.146Z,12.17
2018-07-11T23:59:52.555Z,12.20
